sensor_id;sensor_type;location;lat;lon;timestamp;P1;durP1;ratioP1;P2;durP2;ratioP2
70444;SDS011;57902;49.638;11.070;2024-02-14T00:02:03;8.35;;;3.40;;
70444;SDS011;57902;49.638;11.070;2024-02-14T00:04:31;7.80;;;3.00;;
70444;SDS011;57902;49.638;11.070;2024-02-14T00:06:58;7.05;;;3.10;;
70444;SDS011;57902;49.638;11.070;2024-02-14T00:09:24;6.53;;;2.72;;
70444;SDS011;57902;49.638;11.070;2024-02-14T00:11:51;9.75;;;3.60;;
70444;SDS011;57902;49.638;11.070;2024-02-14T00:14:18;9.10;;;3.33;;
70444;SDS011;57902;49.638;11.070;2024-02-14T00:16:47;7.03;;;3.00;;
70444;SDS011;57902;49.638;11.070;2024-02-14T00:19:14;8.00;;;3.00;;
70444;SDS011;57902;49.638;11.070;2024-02-14T00:21:41;8.02;;;2.80;;
70444;SDS011;57902;49.638;11.070;2024-02-14T00:24:07;8.43;;;2.92;;
70444;SDS011;57902;49.638;11.070;2024-02-14T00:26:34;9.95;;;2.95;;
70444;SDS011;57902;49.638;11.070;2024-02-14T00:29:01;9.30;;;3.03;;
70444;SDS011;57902;49.638;11.070;2024-02-14T00:31:27;8.75;;;3.00;;
70444;SDS011;57902;49.638;11.070;2024-02-14T00:33:55;6.85;;;2.58;;
70444;SDS011;57902;49.638;11.070;2024-02-14T00:36:22;6.22;;;2.60;;
70444;SDS011;57902;49.638;11.070;2024-02-14T00:38:48;6.30;;;2.47;;
70444;SDS011;57902;49.638;11.070;2024-02-14T00:41:15;7.50;;;2.55;;
70444;SDS011;57902;49.638;11.070;2024-02-14T00:43:41;6.85;;;2.80;;
70444;SDS011;57902;49.638;11.070;2024-02-14T00:46:08;7.40;;;2.53;;
70444;SDS011;57902;49.638;11.070;2024-02-14T00:48:34;7.03;;;2.83;;
70444;SDS011;57902;49.638;11.070;2024-02-14T00:51:01;7.18;;;3.10;;
70444;SDS011;57902;49.638;11.070;2024-02-14T00:53:27;7.20;;;2.83;;
70444;SDS011;57902;49.638;11.070;2024-02-14T00:55:54;9.23;;;3.30;;
70444;SDS011;57902;49.638;11.070;2024-02-14T00:58:20;7.30;;;2.83;;
70444;SDS011;57902;49.638;11.070;2024-02-14T01:00:47;7.25;;;2.92;;
70444;SDS011;57902;49.638;11.070;2024-02-14T01:03:13;7.85;;;3.03;;
70444;SDS011;57902;49.638;11.070;2024-02-14T01:05:41;6.30;;;2.90;;
70444;SDS011;57902;49.638;11.070;2024-02-14T01:08:09;6.50;;;2.67;;
70444;SDS011;57902;49.638;11.070;2024-02-14T01:10:35;6.22;;;2.28;;
70444;SDS011;57902;49.638;11.070;2024-02-14T01:13:01;7.28;;;2.67;;
70444;SDS011;57902;49.638;11.070;2024-02-14T01:15:28;7.93;;;2.90;;
70444;SDS011;57902;49.638;11.070;2024-02-14T01:17:54;6.03;;;2.45;;
70444;SDS011;57902;49.638;11.070;2024-02-14T01:20:21;7.00;;;3.03;;
70444;SDS011;57902;49.638;11.070;2024-02-14T01:22:47;7.60;;;3.45;;
70444;SDS011;57902;49.638;11.070;2024-02-14T01:25:14;8.95;;;3.22;;
70444;SDS011;57902;49.638;11.070;2024-02-14T01:27:41;7.68;;;3.53;;
70444;SDS011;57902;49.638;11.070;2024-02-14T01:30:09;7.50;;;3.08;;
70444;SDS011;57902;49.638;11.070;2024-02-14T01:32:36;7.72;;;2.75;;
70444;SDS011;57902;49.638;11.070;2024-02-14T01:35:04;6.93;;;2.58;;
70444;SDS011;57902;49.638;11.070;2024-02-14T01:37:30;8.40;;;3.17;;
70444;SDS011;57902;49.638;11.070;2024-02-14T01:39:57;9.63;;;3.10;;
70444;SDS011;57902;49.638;11.070;2024-02-14T01:42:23;9.85;;;3.22;;
70444;SDS011;57902;49.638;11.070;2024-02-14T01:44:50;9.07;;;2.70;;
70444;SDS011;57902;49.638;11.070;2024-02-14T01:47:17;6.88;;;3.03;;
70444;SDS011;57902;49.638;11.070;2024-02-14T01:49:45;7.50;;;3.55;;
70444;SDS011;57902;49.638;11.070;2024-02-14T01:52:11;8.02;;;3.13;;
70444;SDS011;57902;49.638;11.070;2024-02-14T01:54:38;6.50;;;2.63;;
70444;SDS011;57902;49.638;11.070;2024-02-14T01:57:05;6.32;;;2.65;;
70444;SDS011;57902;49.638;11.070;2024-02-14T01:59:33;7.50;;;2.83;;
70444;SDS011;57902;49.638;11.070;2024-02-14T02:02:01;7.43;;;2.97;;
70444;SDS011;57902;49.638;11.070;2024-02-14T02:04:28;5.53;;;2.47;;
70444;SDS011;57902;49.638;11.070;2024-02-14T02:06:55;10.07;;;3.10;;
70444;SDS011;57902;49.638;11.070;2024-02-14T02:09:22;10.15;;;3.25;;
70444;SDS011;57902;49.638;11.070;2024-02-14T02:11:49;8.55;;;3.50;;
70444;SDS011;57902;49.638;11.070;2024-02-14T02:14:17;7.22;;;2.67;;
70444;SDS011;57902;49.638;11.070;2024-02-14T02:16:44;7.75;;;2.85;;
70444;SDS011;57902;49.638;11.070;2024-02-14T02:19:10;7.22;;;2.90;;
70444;SDS011;57902;49.638;11.070;2024-02-14T02:21:37;5.15;;;2.25;;
70444;SDS011;57902;49.638;11.070;2024-02-14T02:24:04;8.05;;;2.70;;
70444;SDS011;57902;49.638;11.070;2024-02-14T02:26:31;8.40;;;2.70;;
70444;SDS011;57902;49.638;11.070;2024-02-14T02:28:57;6.35;;;2.70;;
70444;SDS011;57902;49.638;11.070;2024-02-14T02:31:25;10.27;;;2.97;;
70444;SDS011;57902;49.638;11.070;2024-02-14T02:33:52;6.50;;;2.92;;
70444;SDS011;57902;49.638;11.070;2024-02-14T02:36:19;6.95;;;2.85;;
70444;SDS011;57902;49.638;11.070;2024-02-14T02:38:46;9.27;;;2.83;;
70444;SDS011;57902;49.638;11.070;2024-02-14T02:41:13;6.78;;;2.50;;
70444;SDS011;57902;49.638;11.070;2024-02-14T02:43:39;5.97;;;2.50;;
70444;SDS011;57902;49.638;11.070;2024-02-14T02:46:06;6.32;;;2.10;;
70444;SDS011;57902;49.638;11.070;2024-02-14T02:48:35;6.60;;;2.28;;
70444;SDS011;57902;49.638;11.070;2024-02-14T02:51:02;8.05;;;2.15;;
70444;SDS011;57902;49.638;11.070;2024-02-14T02:53:29;8.32;;;2.03;;
70444;SDS011;57902;49.638;11.070;2024-02-14T02:55:55;6.95;;;2.35;;
70444;SDS011;57902;49.638;11.070;2024-02-14T02:58:23;7.22;;;2.30;;
70444;SDS011;57902;49.638;11.070;2024-02-14T03:00:50;5.88;;;2.28;;
70444;SDS011;57902;49.638;11.070;2024-02-14T03:03:16;8.85;;;2.22;;
70444;SDS011;57902;49.638;11.070;2024-02-14T03:05:43;6.47;;;2.33;;
70444;SDS011;57902;49.638;11.070;2024-02-14T03:08:10;6.95;;;2.40;;
70444;SDS011;57902;49.638;11.070;2024-02-14T03:10:42;6.07;;;2.58;;
70444;SDS011;57902;49.638;11.070;2024-02-14T03:13:08;7.35;;;2.70;;
70444;SDS011;57902;49.638;11.070;2024-02-14T03:15:38;7.50;;;2.40;;
70444;SDS011;57902;49.638;11.070;2024-02-14T03:18:04;6.40;;;2.17;;
70444;SDS011;57902;49.638;11.070;2024-02-14T03:20:36;5.60;;;2.20;;
70444;SDS011;57902;49.638;11.070;2024-02-14T03:23:02;7.75;;;2.42;;
70444;SDS011;57902;49.638;11.070;2024-02-14T03:25:32;5.68;;;2.17;;
70444;SDS011;57902;49.638;11.070;2024-02-14T03:27:59;6.75;;;2.20;;
70444;SDS011;57902;49.638;11.070;2024-02-14T03:30:25;6.40;;;2.10;;
70444;SDS011;57902;49.638;11.070;2024-02-14T03:32:52;5.63;;;2.00;;
70444;SDS011;57902;49.638;11.070;2024-02-14T03:35:19;8.20;;;2.53;;
70444;SDS011;57902;49.638;11.070;2024-02-14T03:37:47;16.48;;;5.53;;
70444;SDS011;57902;49.638;11.070;2024-02-14T03:40:15;12.90;;;4.00;;
70444;SDS011;57902;49.638;11.070;2024-02-14T03:42:41;21.30;;;8.50;;
70444;SDS011;57902;49.638;11.070;2024-02-14T03:45:08;8.07;;;2.90;;
70444;SDS011;57902;49.638;11.070;2024-02-14T03:47:35;10.15;;;2.58;;
70444;SDS011;57902;49.638;11.070;2024-02-14T03:50:06;10.10;;;3.80;;
70444;SDS011;57902;49.638;11.070;2024-02-14T03:52:34;5.57;;;2.10;;
70444;SDS011;57902;49.638;11.070;2024-02-14T03:55:00;5.82;;;1.92;;
70444;SDS011;57902;49.638;11.070;2024-02-14T03:57:27;8.13;;;2.30;;
70444;SDS011;57902;49.638;11.070;2024-02-14T03:59:55;5.93;;;1.80;;
70444;SDS011;57902;49.638;11.070;2024-02-14T04:02:22;4.65;;;1.90;;
70444;SDS011;57902;49.638;11.070;2024-02-14T04:04:54;4.45;;;1.92;;
70444;SDS011;57902;49.638;11.070;2024-02-14T04:07:20;4.90;;;2.03;;
70444;SDS011;57902;49.638;11.070;2024-02-14T04:09:48;8.27;;;1.92;;
70444;SDS011;57902;49.638;11.070;2024-02-14T04:12:15;4.95;;;1.80;;
70444;SDS011;57902;49.638;11.070;2024-02-14T04:14:41;5.28;;;1.77;;
70444;SDS011;57902;49.638;11.070;2024-02-14T04:17:08;7.57;;;2.00;;
70444;SDS011;57902;49.638;11.070;2024-02-14T04:19:34;8.10;;;2.20;;
70444;SDS011;57902;49.638;11.070;2024-02-14T04:22:01;10.48;;;2.42;;
70444;SDS011;57902;49.638;11.070;2024-02-14T04:24:28;4.88;;;1.98;;
70444;SDS011;57902;49.638;11.070;2024-02-14T04:26:54;8.05;;;2.80;;
70444;SDS011;57902;49.638;11.070;2024-02-14T04:29:23;5.93;;;2.40;;
70444;SDS011;57902;49.638;11.070;2024-02-14T04:31:50;4.07;;;1.80;;
70444;SDS011;57902;49.638;11.070;2024-02-14T04:34:17;6.63;;;1.95;;
70444;SDS011;57902;49.638;11.070;2024-02-14T04:36:45;9.40;;;3.05;;
70444;SDS011;57902;49.638;11.070;2024-02-14T04:39:11;5.32;;;1.70;;
70444;SDS011;57902;49.638;11.070;2024-02-14T04:41:38;3.75;;;1.63;;
70444;SDS011;57902;49.638;11.070;2024-02-14T04:44:22;4.05;;;1.60;;
70444;SDS011;57902;49.638;11.070;2024-02-14T04:46:49;4.25;;;1.50;;
70444;SDS011;57902;49.638;11.070;2024-02-14T04:49:15;5.03;;;1.70;;
70444;SDS011;57902;49.638;11.070;2024-02-14T04:51:42;8.32;;;1.63;;
70444;SDS011;57902;49.638;11.070;2024-02-14T04:54:08;4.13;;;1.63;;
70444;SDS011;57902;49.638;11.070;2024-02-14T04:56:36;6.72;;;2.00;;
70444;SDS011;57902;49.638;11.070;2024-02-14T04:59:02;4.03;;;1.73;;
70444;SDS011;57902;49.638;11.070;2024-02-14T05:01:30;3.75;;;1.70;;
70444;SDS011;57902;49.638;11.070;2024-02-14T05:03:57;5.80;;;1.77;;
70444;SDS011;57902;49.638;11.070;2024-02-14T05:06:24;5.63;;;2.20;;
70444;SDS011;57902;49.638;11.070;2024-02-14T05:08:51;7.38;;;2.60;;
70444;SDS011;57902;49.638;11.070;2024-02-14T05:11:17;6.45;;;2.40;;
70444;SDS011;57902;49.638;11.070;2024-02-14T05:13:44;6.25;;;2.10;;
70444;SDS011;57902;49.638;11.070;2024-02-14T05:16:12;4.47;;;1.98;;
70444;SDS011;57902;49.638;11.070;2024-02-14T05:18:39;5.78;;;2.10;;
70444;SDS011;57902;49.638;11.070;2024-02-14T05:21:06;8.98;;;2.53;;
70444;SDS011;57902;49.638;11.070;2024-02-14T05:23:34;4.68;;;1.90;;
70444;SDS011;57902;49.638;11.070;2024-02-14T05:26:02;5.25;;;2.20;;
70444;SDS011;57902;49.638;11.070;2024-02-14T05:28:29;8.80;;;3.22;;
70444;SDS011;57902;49.638;11.070;2024-02-14T05:30:56;9.02;;;3.03;;
70444;SDS011;57902;49.638;11.070;2024-02-14T05:33:23;9.52;;;2.55;;
70444;SDS011;57902;49.638;11.070;2024-02-14T05:35:50;6.57;;;2.10;;
70444;SDS011;57902;49.638;11.070;2024-02-14T05:38:18;6.75;;;2.60;;
70444;SDS011;57902;49.638;11.070;2024-02-14T05:40:50;6.65;;;2.60;;
70444;SDS011;57902;49.638;11.070;2024-02-14T05:43:17;4.78;;;2.03;;
70444;SDS011;57902;49.638;11.070;2024-02-14T05:45:44;4.85;;;1.88;;
70444;SDS011;57902;49.638;11.070;2024-02-14T05:48:11;6.90;;;2.13;;
70444;SDS011;57902;49.638;11.070;2024-02-14T05:50:37;5.88;;;2.67;;
70444;SDS011;57902;49.638;11.070;2024-02-14T05:53:04;6.65;;;2.38;;
70444;SDS011;57902;49.638;11.070;2024-02-14T05:55:31;8.77;;;2.72;;
70444;SDS011;57902;49.638;11.070;2024-02-14T05:57:58;9.57;;;2.40;;
70444;SDS011;57902;49.638;11.070;2024-02-14T06:00:25;5.45;;;2.10;;
70444;SDS011;57902;49.638;11.070;2024-02-14T06:02:55;7.88;;;2.47;;
70444;SDS011;57902;49.638;11.070;2024-02-14T06:05:22;7.40;;;2.33;;
70444;SDS011;57902;49.638;11.070;2024-02-14T06:07:49;11.40;;;2.50;;
70444;SDS011;57902;49.638;11.070;2024-02-14T06:10:16;6.35;;;2.33;;
70444;SDS011;57902;49.638;11.070;2024-02-14T06:12:45;5.13;;;2.25;;
70444;SDS011;57902;49.638;11.070;2024-02-14T06:17:41;6.10;;;2.42;;
70444;SDS011;57902;49.638;11.070;2024-02-14T06:20:07;5.70;;;2.10;;
70444;SDS011;57902;49.638;11.070;2024-02-14T06:22:35;5.65;;;2.20;;
70444;SDS011;57902;49.638;11.070;2024-02-14T06:25:12;7.13;;;2.45;;
70444;SDS011;57902;49.638;11.070;2024-02-14T06:27:39;5.43;;;2.30;;
70444;SDS011;57902;49.638;11.070;2024-02-14T06:30:06;5.45;;;2.30;;
70444;SDS011;57902;49.638;11.070;2024-02-14T06:32:34;6.10;;;2.05;;
70444;SDS011;57902;49.638;11.070;2024-02-14T06:35:01;10.80;;;2.38;;
70444;SDS011;57902;49.638;11.070;2024-02-14T06:37:28;5.38;;;1.85;;
70444;SDS011;57902;49.638;11.070;2024-02-14T06:40:01;6.43;;;2.40;;
70444;SDS011;57902;49.638;11.070;2024-02-14T06:42:28;5.60;;;2.50;;
70444;SDS011;57902;49.638;11.070;2024-02-14T06:44:54;5.53;;;2.00;;
70444;SDS011;57902;49.638;11.070;2024-02-14T06:47:21;6.68;;;2.47;;
70444;SDS011;57902;49.638;11.070;2024-02-14T06:49:48;5.80;;;2.20;;
70444;SDS011;57902;49.638;11.070;2024-02-14T06:52:15;9.05;;;2.38;;
70444;SDS011;57902;49.638;11.070;2024-02-14T06:54:41;8.75;;;2.03;;
70444;SDS011;57902;49.638;11.070;2024-02-14T06:57:08;7.03;;;2.90;;
70444;SDS011;57902;49.638;11.070;2024-02-14T06:59:34;5.88;;;2.22;;
70444;SDS011;57902;49.638;11.070;2024-02-14T07:02:04;10.52;;;3.55;;
70444;SDS011;57902;49.638;11.070;2024-02-14T07:04:39;5.72;;;2.50;;
70444;SDS011;57902;49.638;11.070;2024-02-14T07:07:06;6.15;;;2.05;;
70444;SDS011;57902;49.638;11.070;2024-02-14T07:09:32;5.53;;;2.47;;
70444;SDS011;57902;49.638;11.070;2024-02-14T07:12:02;5.88;;;2.30;;
70444;SDS011;57902;49.638;11.070;2024-02-14T07:14:28;7.10;;;2.20;;
70444;SDS011;57902;49.638;11.070;2024-02-14T07:16:55;5.63;;;2.13;;
70444;SDS011;57902;49.638;11.070;2024-02-14T07:19:21;5.32;;;2.13;;
70444;SDS011;57902;49.638;11.070;2024-02-14T07:21:48;5.35;;;1.98;;
70444;SDS011;57902;49.638;11.070;2024-02-14T07:24:15;6.78;;;2.25;;
70444;SDS011;57902;49.638;11.070;2024-02-14T07:26:41;6.50;;;2.20;;
70444;SDS011;57902;49.638;11.070;2024-02-14T07:29:10;7.50;;;2.42;;
70444;SDS011;57902;49.638;11.070;2024-02-14T07:31:37;6.05;;;2.22;;
70444;SDS011;57902;49.638;11.070;2024-02-14T07:34:04;6.57;;;2.42;;
70444;SDS011;57902;49.638;11.070;2024-02-14T07:36:35;5.22;;;1.92;;
70444;SDS011;57902;49.638;11.070;2024-02-14T07:39:02;7.68;;;2.38;;
70444;SDS011;57902;49.638;11.070;2024-02-14T07:41:28;4.22;;;1.90;;
70444;SDS011;57902;49.638;11.070;2024-02-14T07:43:55;5.78;;;2.50;;
70444;SDS011;57902;49.638;11.070;2024-02-14T07:46:23;4.85;;;2.00;;
70444;SDS011;57902;49.638;11.070;2024-02-14T07:48:52;9.13;;;2.70;;
70444;SDS011;57902;49.638;11.070;2024-02-14T07:51:19;5.40;;;2.22;;
70444;SDS011;57902;49.638;11.070;2024-02-14T07:53:46;7.45;;;2.22;;
70444;SDS011;57902;49.638;11.070;2024-02-14T07:56:13;5.68;;;3.08;;
70444;SDS011;57902;49.638;11.070;2024-02-14T07:58:39;5.53;;;1.90;;
70444;SDS011;57902;49.638;11.070;2024-02-14T08:01:06;5.75;;;2.15;;
70444;SDS011;57902;49.638;11.070;2024-02-14T08:03:32;8.93;;;2.97;;
70444;SDS011;57902;49.638;11.070;2024-02-14T08:05:59;7.53;;;2.13;;
70444;SDS011;57902;49.638;11.070;2024-02-14T08:08:27;6.85;;;2.30;;
70444;SDS011;57902;49.638;11.070;2024-02-14T08:10:54;6.20;;;2.72;;
70444;SDS011;57902;49.638;11.070;2024-02-14T08:13:21;6.63;;;2.30;;
70444;SDS011;57902;49.638;11.070;2024-02-14T08:15:48;5.97;;;2.35;;
70444;SDS011;57902;49.638;11.070;2024-02-14T08:18:15;5.07;;;2.38;;
70444;SDS011;57902;49.638;11.070;2024-02-14T08:20:43;8.35;;;2.40;;
70444;SDS011;57902;49.638;11.070;2024-02-14T08:23:09;5.25;;;2.08;;
70444;SDS011;57902;49.638;11.070;2024-02-14T08:25:36;7.47;;;2.55;;
70444;SDS011;57902;49.638;11.070;2024-02-14T08:28:02;10.27;;;2.75;;
70444;SDS011;57902;49.638;11.070;2024-02-14T08:30:29;4.75;;;2.17;;
70444;SDS011;57902;49.638;11.070;2024-02-14T08:32:56;7.43;;;2.28;;
70444;SDS011;57902;49.638;11.070;2024-02-14T08:35:23;7.78;;;2.50;;
70444;SDS011;57902;49.638;11.070;2024-02-14T08:37:49;8.00;;;2.38;;
70444;SDS011;57902;49.638;11.070;2024-02-14T08:40:16;6.85;;;2.40;;
70444;SDS011;57902;49.638;11.070;2024-02-14T08:42:44;7.53;;;2.55;;
70444;SDS011;57902;49.638;11.070;2024-02-14T08:45:10;8.45;;;2.70;;
70444;SDS011;57902;49.638;11.070;2024-02-14T08:47:37;8.60;;;2.60;;
70444;SDS011;57902;49.638;11.070;2024-02-14T08:50:04;8.70;;;2.63;;
70444;SDS011;57902;49.638;11.070;2024-02-14T08:52:31;9.10;;;2.53;;
70444;SDS011;57902;49.638;11.070;2024-02-14T08:54:59;6.78;;;2.65;;
70444;SDS011;57902;49.638;11.070;2024-02-14T08:57:25;9.38;;;2.65;;
70444;SDS011;57902;49.638;11.070;2024-02-14T08:59:54;6.22;;;2.60;;
70444;SDS011;57902;49.638;11.070;2024-02-14T09:02:22;6.95;;;2.65;;
70444;SDS011;57902;49.638;11.070;2024-02-14T09:04:49;6.18;;;2.58;;
70444;SDS011;57902;49.638;11.070;2024-02-14T09:07:17;6.57;;;2.55;;
70444;SDS011;57902;49.638;11.070;2024-02-14T09:09:44;7.68;;;2.83;;
70444;SDS011;57902;49.638;11.070;2024-02-14T09:12:26;7.68;;;2.90;;
70444;SDS011;57902;49.638;11.070;2024-02-14T09:15:22;6.05;;;2.60;;
70444;SDS011;57902;49.638;11.070;2024-02-14T09:17:52;8.77;;;2.80;;
70444;SDS011;57902;49.638;11.070;2024-02-14T09:20:23;9.35;;;3.38;;
70444;SDS011;57902;49.638;11.070;2024-02-14T09:23:14;7.70;;;3.03;;
70444;SDS011;57902;49.638;11.070;2024-02-14T09:26:33;9.80;;;2.92;;
70444;SDS011;57902;49.638;11.070;2024-02-14T09:29:47;6.47;;;2.60;;
70444;SDS011;57902;49.638;11.070;2024-02-14T09:32:14;7.38;;;3.20;;
70444;SDS011;57902;49.638;11.070;2024-02-14T09:34:40;6.95;;;2.72;;
70444;SDS011;57902;49.638;11.070;2024-02-14T09:37:07;7.93;;;3.00;;
70444;SDS011;57902;49.638;11.070;2024-02-14T09:43:38;6.72;;;2.53;;
70444;SDS011;57902;49.638;11.070;2024-02-14T09:46:07;7.10;;;3.00;;
70444;SDS011;57902;49.638;11.070;2024-02-14T09:48:34;7.20;;;2.55;;
70444;SDS011;57902;49.638;11.070;2024-02-14T09:51:04;6.40;;;2.53;;
70444;SDS011;57902;49.638;11.070;2024-02-14T09:53:33;9.02;;;2.67;;
70444;SDS011;57902;49.638;11.070;2024-02-14T09:56:10;7.32;;;2.70;;
70444;SDS011;57902;49.638;11.070;2024-02-14T09:58:58;10.48;;;3.13;;
70444;SDS011;57902;49.638;11.070;2024-02-14T10:01:29;7.97;;;3.20;;
70444;SDS011;57902;49.638;11.070;2024-02-14T10:04:09;5.47;;;2.40;;
70444;SDS011;57902;49.638;11.070;2024-02-14T10:06:45;6.78;;;2.40;;
70444;SDS011;57902;49.638;11.070;2024-02-14T10:09:25;6.75;;;2.35;;
70444;SDS011;57902;49.638;11.070;2024-02-14T10:12:09;7.13;;;2.42;;
70444;SDS011;57902;49.638;11.070;2024-02-14T10:14:55;7.85;;;2.63;;
70444;SDS011;57902;49.638;11.070;2024-02-14T10:17:22;6.88;;;2.63;;
70444;SDS011;57902;49.638;11.070;2024-02-14T10:20:10;6.45;;;2.40;;
70444;SDS011;57902;49.638;11.070;2024-02-14T10:22:51;6.65;;;2.17;;
70444;SDS011;57902;49.638;11.070;2024-02-14T10:25:17;7.03;;;2.50;;
70444;SDS011;57902;49.638;11.070;2024-02-14T10:27:45;7.15;;;2.53;;
70444;SDS011;57902;49.638;11.070;2024-02-14T10:30:14;6.00;;;2.42;;
70444;SDS011;57902;49.638;11.070;2024-02-14T10:32:41;9.25;;;2.50;;
70444;SDS011;57902;49.638;11.070;2024-02-14T10:35:13;14.30;;;5.80;;
70444;SDS011;57902;49.638;11.070;2024-02-14T10:37:41;5.97;;;2.25;;
70444;SDS011;57902;49.638;11.070;2024-02-14T10:40:08;9.68;;;2.30;;
70444;SDS011;57902;49.638;11.070;2024-02-14T10:42:53;7.32;;;3.00;;
70444;SDS011;57902;49.638;11.070;2024-02-14T10:45:21;8.70;;;2.45;;
70444;SDS011;57902;49.638;11.070;2024-02-14T10:47:47;6.88;;;2.20;;
70444;SDS011;57902;49.638;11.070;2024-02-14T10:50:22;9.25;;;3.30;;
70444;SDS011;57902;49.638;11.070;2024-02-14T10:53:02;18.95;;;7.28;;
70444;SDS011;57902;49.638;11.070;2024-02-14T10:55:43;17.63;;;7.63;;
70444;SDS011;57902;49.638;11.070;2024-02-14T10:58:21;13.52;;;5.90;;
70444;SDS011;57902;49.638;11.070;2024-02-14T11:00:53;8.02;;;3.70;;
70444;SDS011;57902;49.638;11.070;2024-02-14T11:03:20;7.40;;;2.53;;
70444;SDS011;57902;49.638;11.070;2024-02-14T11:05:48;12.57;;;4.32;;
70444;SDS011;57902;49.638;11.070;2024-02-14T11:08:19;6.30;;;2.30;;
70444;SDS011;57902;49.638;11.070;2024-02-14T11:10:53;6.20;;;2.35;;
70444;SDS011;57902;49.638;11.070;2024-02-14T11:13:25;10.30;;;3.80;;
70444;SDS011;57902;49.638;11.070;2024-02-14T11:15:59;7.15;;;2.30;;
70444;SDS011;57902;49.638;11.070;2024-02-14T11:18:28;9.38;;;2.63;;
70444;SDS011;57902;49.638;11.070;2024-02-14T11:20:56;8.50;;;3.10;;
70444;SDS011;57902;49.638;11.070;2024-02-14T11:23:26;10.73;;;3.78;;
70444;SDS011;57902;49.638;11.070;2024-02-14T11:26:03;9.70;;;3.40;;
70444;SDS011;57902;49.638;11.070;2024-02-14T11:28:36;5.80;;;2.15;;
70444;SDS011;57902;49.638;11.070;2024-02-14T11:31:06;10.10;;;2.63;;
70444;SDS011;57902;49.638;11.070;2024-02-14T11:33:33;8.18;;;2.22;;
70444;SDS011;57902;49.638;11.070;2024-02-14T11:36:01;7.70;;;2.50;;
70444;SDS011;57902;49.638;11.070;2024-02-14T11:38:37;6.18;;;1.80;;
70444;SDS011;57902;49.638;11.070;2024-02-14T11:41:06;8.52;;;3.63;;
70444;SDS011;57902;49.638;11.070;2024-02-14T11:43:33;7.40;;;2.35;;
70444;SDS011;57902;49.638;11.070;2024-02-14T11:45:59;6.28;;;2.20;;
70444;SDS011;57902;49.638;11.070;2024-02-14T11:48:26;6.88;;;2.40;;
70444;SDS011;57902;49.638;11.070;2024-02-14T11:50:55;5.97;;;1.80;;
70444;SDS011;57902;49.638;11.070;2024-02-14T11:53:22;5.88;;;1.88;;
70444;SDS011;57902;49.638;11.070;2024-02-14T11:55:49;14.50;;;3.63;;
70444;SDS011;57902;49.638;11.070;2024-02-14T11:58:17;5.15;;;1.80;;
70444;SDS011;57902;49.638;11.070;2024-02-14T12:00:44;7.55;;;2.13;;
70444;SDS011;57902;49.638;11.070;2024-02-14T12:03:16;5.35;;;1.88;;
70444;SDS011;57902;49.638;11.070;2024-02-14T12:05:45;7.35;;;1.85;;
70444;SDS011;57902;49.638;11.070;2024-02-14T12:08:14;14.30;;;5.57;;
70444;SDS011;57902;49.638;11.070;2024-02-14T12:10:44;10.10;;;4.55;;
70444;SDS011;57902;49.638;11.070;2024-02-14T12:13:23;5.22;;;2.08;;
70444;SDS011;57902;49.638;11.070;2024-02-14T12:15:50;6.22;;;1.92;;
70444;SDS011;57902;49.638;11.070;2024-02-14T12:18:19;7.53;;;2.90;;
70444;SDS011;57902;49.638;11.070;2024-02-14T12:20:47;4.45;;;1.80;;
70444;SDS011;57902;49.638;11.070;2024-02-14T12:23:20;5.25;;;1.90;;
70444;SDS011;57902;49.638;11.070;2024-02-14T12:25:48;5.63;;;1.83;;
70444;SDS011;57902;49.638;11.070;2024-02-14T12:28:16;3.50;;;1.60;;
70444;SDS011;57902;49.638;11.070;2024-02-14T12:30:47;3.95;;;1.48;;
70444;SDS011;57902;49.638;11.070;2024-02-14T12:33:16;4.72;;;1.60;;
70444;SDS011;57902;49.638;11.070;2024-02-14T12:35:44;6.13;;;1.48;;
70444;SDS011;57902;49.638;11.070;2024-02-14T12:40:40;3.50;;;1.10;;
70444;SDS011;57902;49.638;11.070;2024-02-14T12:43:14;5.55;;;1.35;;
70444;SDS011;57902;49.638;11.070;2024-02-14T12:45:42;2.95;;;1.30;;
70444;SDS011;57902;49.638;11.070;2024-02-14T12:48:10;3.50;;;0.80;;
70444;SDS011;57902;49.638;11.070;2024-02-14T12:50:40;3.90;;;1.15;;
70444;SDS011;57902;49.638;11.070;2024-02-14T12:53:14;4.93;;;0.95;;
70444;SDS011;57902;49.638;11.070;2024-02-14T12:55:40;4.53;;;1.27;;
70444;SDS011;57902;49.638;11.070;2024-02-14T12:58:07;2.88;;;1.10;;
70444;SDS011;57902;49.638;11.070;2024-02-14T13:00:33;2.42;;;1.00;;
70444;SDS011;57902;49.638;11.070;2024-02-14T13:03:00;1.63;;;0.90;;
70444;SDS011;57902;49.638;11.070;2024-02-14T13:05:27;3.97;;;1.00;;
70444;SDS011;57902;49.638;11.070;2024-02-14T13:07:54;3.53;;;0.90;;
70444;SDS011;57902;49.638;11.070;2024-02-14T13:10:20;4.28;;;1.00;;
70444;SDS011;57902;49.638;11.070;2024-02-14T13:12:48;3.65;;;1.10;;
70444;SDS011;57902;49.638;11.070;2024-02-14T13:15:15;3.47;;;1.10;;
70444;SDS011;57902;49.638;11.070;2024-02-14T13:17:42;5.88;;;1.30;;
70444;SDS011;57902;49.638;11.070;2024-02-14T13:20:09;5.05;;;1.40;;
70444;SDS011;57902;49.638;11.070;2024-02-14T13:22:37;5.03;;;1.23;;
70444;SDS011;57902;49.638;11.070;2024-02-14T13:25:04;3.80;;;1.30;;
70444;SDS011;57902;49.638;11.070;2024-02-14T13:27:31;3.88;;;1.17;;
70444;SDS011;57902;49.638;11.070;2024-02-14T13:29:58;3.00;;;1.13;;
70444;SDS011;57902;49.638;11.070;2024-02-14T13:32:24;4.43;;;1.10;;
70444;SDS011;57902;49.638;11.070;2024-02-14T13:34:51;3.83;;;0.90;;
70444;SDS011;57902;49.638;11.070;2024-02-14T13:37:18;5.78;;;1.13;;
70444;SDS011;57902;49.638;11.070;2024-02-14T13:39:45;2.67;;;1.10;;
70444;SDS011;57902;49.638;11.070;2024-02-14T13:42:13;4.18;;;0.93;;
70444;SDS011;57902;49.638;11.070;2024-02-14T13:44:40;5.10;;;1.80;;
70444;SDS011;57902;49.638;11.070;2024-02-14T13:47:07;4.38;;;1.20;;
70444;SDS011;57902;49.638;11.070;2024-02-14T13:49:34;4.15;;;1.38;;
70444;SDS011;57902;49.638;11.070;2024-02-14T13:52:01;3.13;;;1.25;;
70444;SDS011;57902;49.638;11.070;2024-02-14T13:54:28;3.05;;;0.90;;
70444;SDS011;57902;49.638;11.070;2024-02-14T13:56:54;5.90;;;1.50;;
70444;SDS011;57902;49.638;11.070;2024-02-14T13:59:22;2.85;;;1.20;;
70444;SDS011;57902;49.638;11.070;2024-02-14T14:01:49;3.97;;;1.23;;
70444;SDS011;57902;49.638;11.070;2024-02-14T14:04:15;3.40;;;1.20;;
70444;SDS011;57902;49.638;11.070;2024-02-14T14:06:42;5.60;;;1.13;;
70444;SDS011;57902;49.638;11.070;2024-02-14T14:09:09;5.72;;;1.30;;
70444;SDS011;57902;49.638;11.070;2024-02-14T14:11:36;4.35;;;1.45;;
70444;SDS011;57902;49.638;11.070;2024-02-14T14:14:04;2.72;;;0.93;;
70444;SDS011;57902;49.638;11.070;2024-02-14T14:16:31;2.90;;;1.17;;
70444;SDS011;57902;49.638;11.070;2024-02-14T14:18:59;4.43;;;1.23;;
70444;SDS011;57902;49.638;11.070;2024-02-14T14:21:27;4.82;;;1.20;;
70444;SDS011;57902;49.638;11.070;2024-02-14T14:23:53;4.35;;;1.38;;
70444;SDS011;57902;49.638;11.070;2024-02-14T14:26:20;5.63;;;1.40;;
70444;SDS011;57902;49.638;11.070;2024-02-14T14:28:47;5.18;;;1.30;;
70444;SDS011;57902;49.638;11.070;2024-02-14T14:31:13;2.83;;;1.13;;
70444;SDS011;57902;49.638;11.070;2024-02-14T14:33:40;4.07;;;1.27;;
70444;SDS011;57902;49.638;11.070;2024-02-14T14:36:09;3.65;;;1.30;;
70444;SDS011;57902;49.638;11.070;2024-02-14T14:38:36;3.15;;;1.10;;
70444;SDS011;57902;49.638;11.070;2024-02-14T14:41:04;5.90;;;1.40;;
70444;SDS011;57902;49.638;11.070;2024-02-14T14:43:30;4.72;;;1.20;;
70444;SDS011;57902;49.638;11.070;2024-02-14T14:45:57;4.18;;;1.23;;
70444;SDS011;57902;49.638;11.070;2024-02-14T14:48:25;2.92;;;1.20;;
70444;SDS011;57902;49.638;11.070;2024-02-14T14:50:52;5.82;;;1.17;;